Time;durP1;ratioP1;P1;durP2;ratioP2;P2;SDS_P1;SDS_P2;PMS_P1;PMS_P2;Temp;Humidity;BMP_temperature;BMP_pressure;BME280_temperature;BME280_humidity;BME280_pressure;Samples;Min_cycle;Max_cycle;Signal;HPM_P1;HPM_P2
2021/01/28 00:00:51;;;;;;;18.40;13.08;;;;;;;-0.18;80.76;99113.01;1778267;80;21556;-52
2021/01/28 00:03:22;;;;;;;19.77;14.00;;;;;;;-0.19;80.90;99100.05;1775968;80;21038;-51
2021/01/28 00:05:56;;;;;;;18.35;13.00;;;;;;;-0.18;80.90;99104.91;1775613;80;21033;-51
2021/01/28 00:08:26;;;;;;;19.92;13.80;;;;;;;-0.19;80.91;99111.36;1775644;80;21065;-51
2021/01/28 00:10:58;;;;;;;23.98;13.60;;;;;;;-0.19;81.00;99105.96;1775672;79;21045;-51
2021/01/28 00:13:30;;;;;;;21.07;14.10;;;;;;;-0.22;81.09;99089.70;1775804;80;21287;-51
2021/01/28 00:16:05;;;;;;;20.65;13.93;;;;;;;-0.20;81.18;99085.42;1775177;80;21077;-51
2021/01/28 00:18:35;;;;;;;18.67;13.50;;;;;;;-0.18;81.11;99094.93;1776048;80;20954;-51
2021/01/28 00:21:10;;;;;;;20.17;13.50;;;;;;;-0.19;81.06;99100.05;1775860;80;21862;-51
2021/01/28 00:23:45;;;;;;;17.87;13.03;;;;;;;-0.24;81.12;99091.83;1776072;80;21058;-51
2021/01/28 00:26:12;;;;;;;18.15;13.68;;;;;;;-0.25;81.11;99098.82;1776818;80;22780;-51
2021/01/28 00:28:39;;;;;;;17.23;12.23;;;;;;;-0.27;81.27;99101.75;1776475;80;21041;-51
2021/01/28 00:31:07;;;;;;;22.25;15.20;;;;;;;-0.23;81.33;99096.69;1776835;80;21025;-51
2021/01/28 00:33:35;;;;;;;19.95;14.25;;;;;;;-0.22;81.28;99086.20;1776705;80;20998;-51
2021/01/28 00:36:05;;;;;;;19.82;15.20;;;;;;;-0.20;81.33;99088.96;1776704;80;21057;-51
2021/01/28 00:38:35;;;;;;;18.45;12.20;;;;;;;-0.17;81.36;99086.33;1776804;80;21656;-51
2021/01/28 00:41:06;;;;;;;17.23;12.93;;;;;;;-0.11;81.43;99083.22;1776585;80;21026;-51
2021/01/28 00:43:34;;;;;;;17.67;13.93;;;;;;;-0.08;81.22;99078.69;1775623;80;21029;-51
2021/01/28 00:46:05;;;;;;;20.75;13.10;;;;;;;-0.09;81.18;99077.84;1776506;80;20990;-51
2021/01/28 00:48:37;;;;;;;17.07;13.22;;;;;;;-0.08;81.02;99061.95;1776567;80;21141;-51
2021/01/28 00:51:20;;;;;;;17.65;12.58;;;;;;;-0.02;80.90;99051.55;1888187;76;22625;-49
2021/01/28 00:53:49;;;;;;;17.45;12.55;;;;;;;-0.09;80.73;99068.40;1859160;77;20974;-50
2021/01/28 00:56:24;;;;;;;21.35;15.60;;;;;;;-0.10;80.64;99080.78;1858503;77;22078;-50
2021/01/28 00:58:51;;;;;;;23.90;16.32;;;;;;;-0.10;80.62;99074.04;1858833;77;21068;-50
2021/01/28 01:01:20;;;;;;;21.80;15.13;;;;;;;-0.11;80.62;99053.52;1859320;77;21028;-50
2021/01/28 01:03:49;;;;;;;20.27;14.87;;;;;;;-0.11;80.77;99048.94;1859716;77;20973;-51
2021/01/28 01:06:16;;;;;;;17.73;13.93;;;;;;;-0.11;80.72;99053.52;1859802;77;21564;-51
2021/01/28 01:08:45;;;;;;;21.45;14.73;;;;;;;-0.11;80.80;99067.83;1859512;77;21350;-51
2021/01/28 01:11:16;;;;;;;29.32;18.92;;;;;;;-0.10;80.79;99080.27;1856378;77;21033;-51
2021/01/28 01:13:46;;;;;;;20.70;14.75;;;;;;;-0.10;80.79;99058.68;1783532;80;21045;-51
2021/01/28 01:16:18;;;;;;;18.62;13.28;;;;;;;-0.09;80.79;99046.80;1780776;80;21046;-51
2021/01/28 01:18:55;;;;;;;21.62;14.73;;;;;;;-0.09;80.66;99050.05;1786389;80;21199;-51
2021/01/28 01:21:23;;;;;;;18.75;14.30;;;;;;;-0.13;80.58;99048.34;1782581;80;21763;-51
2021/01/28 01:23:52;;;;;;;20.82;14.68;;;;;;;-0.17;80.59;99047.20;1783685;80;21053;-51
2021/01/28 01:26:21;;;;;;;21.05;13.85;;;;;;;-0.20;80.79;99045.78;1782891;80;21005;-51
2021/01/28 01:28:50;;;;;;;19.17;13.60;;;;;;;-0.19;80.83;99045.25;1786945;80;21042;-51
2021/01/28 01:31:25;;;;;;;19.52;14.20;;;;;;;-0.19;80.80;99039.84;1781105;80;21660;-51
2021/01/28 01:33:52;;;;;;;18.27;13.10;;;;;;;-0.19;80.86;99049.30;1786391;80;21212;-51
2021/01/28 01:36:22;;;;;;;18.23;13.25;;;;;;;-0.17;80.80;99049.89;1782812;80;21005;-51
2021/01/28 01:38:51;;;;;;;17.80;12.05;;;;;;;-0.14;80.83;99043.17;1786107;80;21041;-51
2021/01/28 01:41:24;;;;;;;19.37;14.03;;;;;;;-0.13;80.72;99041.59;1782351;80;21010;-51
2021/01/28 01:44:00;;;;;;;17.37;12.80;;;;;;;-0.13;80.74;99041.59;1787083;80;20979;-50
2021/01/28 01:46:29;;;;;;;17.57;13.17;;;;;;;-0.10;80.60;99051.09;1783618;80;21349;-51
2021/01/28 01:49:03;;;;;;;18.73;12.90;;;;;;;-0.09;80.49;99037.36;1787068;80;21398;-51
2021/01/28 01:51:42;;;;;;;18.50;12.95;;;;;;;-0.11;80.49;99036.79;1783386;80;21033;-51
2021/01/28 01:54:27;;;;;;;16.57;12.75;;;;;;;-0.12;80.48;99027.05;1784792;80;21333;-51
2021/01/28 01:57:01;;;;;;;16.75;13.65;;;;;;;-0.11;80.57;99011.15;1783550;80;20998;-51
2021/01/28 01:59:45;;;;;;;20.52;12.78;;;;;;;-0.13;80.71;99013.25;1786616;80;21517;-51
2021/01/28 02:02:34;;;;;;;18.62;12.37;;;;;;;-0.12;80.79;99013.55;1782964;80;21013;-50
2021/01/28 02:05:32;;;;;;;18.05;12.65;;;;;;;-0.12;80.74;99016.79;1786510;80;21069;-50
2021/01/28 02:08:18;;;;;;;17.00;12.58;;;;;;;-0.12;80.82;99011.39;1782576;80;21592;-51
2021/01/28 02:10:46;;;;;;;17.82;13.00;;;;;;;-0.16;80.96;99019.67;1786442;80;21017;-51
2021/01/28 02:13:32;;;;;;;17.40;12.43;;;;;;;-0.14;81.03;99016.19;1778790;80;21221;-51
2021/01/28 02:16:02;;;;;;;19.10;13.90;;;;;;;-0.13;81.05;99007.85;1784962;80;21537;-51
2021/01/28 02:18:32;;;;;;;17.20;12.90;;;;;;;-0.12;80.99;99016.25;1782398;80;21045;-51
2021/01/28 02:21:18;;;;;;;17.42;12.75;;;;;;;-0.11;81.06;99005.75;1785777;80;20982;-51
2021/01/28 02:24:13;;;;;;;18.52;13.55;;;;;;;-0.09;80.97;98999.57;1782386;80;21037;-51
2021/01/28 02:26:44;;;;;;;19.50;14.18;;;;;;;-0.11;80.98;98982.81;1786520;80;21420;-51
2021/01/28 02:29:30;;;;;;;18.62;14.93;;;;;;;-0.11;81.10;98977.41;1782679;80;21275;-50
2021/01/28 02:31:58;;;;;;;19.90;13.62;;;;;;;-0.15;81.19;98975.44;1786462;80;21065;-50
2021/01/28 02:34:27;;;;;;;18.17;14.30;;;;;;;-0.14;81.28;98973.01;1782810;80;21001;-50
2021/01/28 02:36:59;;;;;;;16.20;12.43;;;;;;;-0.18;81.39;98975.38;1785496;80;21433;-50
2021/01/28 02:39:34;;;;;;;17.37;13.60;;;;;;;-0.18;81.47;98978.89;1768630;80;21385;-50
2021/01/28 02:42:21;;;;;;;19.80;14.75;;;;;;;-0.18;81.48;98968.63;1783592;80;21002;-50
2021/01/28 02:44:51;;;;;;;19.10;13.62;;;;;;;-0.17;81.59;98974.33;1781864;80;21065;-51
2021/01/28 02:47:25;;;;;;;19.05;14.00;;;;;;;-0.15;81.50;98983.00;1772704;80;20994;-49
2021/01/28 02:50:12;;;;;;;18.32;12.90;;;;;;;-0.12;81.48;98976.30;1783357;80;21663;-51
2021/01/28 02:52:44;;;;;;;18.17;13.45;;;;;;;-0.12;81.38;98978.46;1797264;79;21213;-51
2021/01/28 02:55:16;;;;;;;18.20;13.95;;;;;;;-0.12;81.29;98973.61;1788673;80;21009;-49
2021/01/28 02:57:44;;;;;;;16.60;13.03;;;;;;;-0.13;81.31;98981.41;1797964;79;21560;-49
2021/01/28 03:00:16;;;;;;;17.27;12.93;;;;;;;-0.13;81.26;98991.66;1788660;80;20974;-49
2021/01/28 03:02:44;;;;;;;19.42;14.07;;;;;;;-0.12;81.25;99000.05;1798000;79;20973;-49
2021/01/28 03:05:14;;;;;;;18.37;13.28;;;;;;;-0.13;81.25;99003.00;1788699;80;21346;-52
2021/01/28 03:07:42;;;;;;;17.35;13.13;;;;;;;-0.12;81.26;99005.99;1797943;79;21033;-49
2021/01/28 03:10:12;;;;;;;17.27;13.43;;;;;;;-0.12;81.25;99004.10;1788551;80;21010;-50
2021/01/28 03:12:48;;;;;;;15.83;12.78;;;;;;;-0.12;81.27;99000.59;1794225;79;21061;-50
2021/01/28 03:15:26;;;;;;;17.07;12.95;;;;;;;-0.12;81.20;98987.10;1771271;80;21018;-51
2021/01/28 03:18:05;;;;;;;17.15;12.05;;;;;;;-0.12;81.20;98987.10;1796803;79;21373;-49
2021/01/28 03:20:37;;;;;;;17.75;13.18;;;;;;;-0.12;81.39;98985.21;1759134;80;21034;-49
2021/01/28 03:23:16;;;;;;;20.93;13.77;;;;;;;-0.12;81.37;98983.05;1794576;79;21073;-49
2021/01/28 03:25:54;;;;;;;19.25;13.53;;;;;;;-0.11;81.25;98983.35;1773969;80;21042;-50
2021/01/28 03:28:28;;;;;;;18.98;13.50;;;;;;;-0.12;81.24;98973.06;1797307;79;21619;-50
2021/01/28 03:30:59;;;;;;;24.18;18.48;;;;;;;-0.12;81.32;98973.06;1788401;79;21545;-49
2021/01/28 03:33:28;;;;;;;26.70;19.00;;;;;;;-0.13;81.24;98967.91;1797896;79;20981;-49
2021/01/28 03:35:56;;;;;;;20.27;15.50;;;;;;;-0.11;81.39;98973.91;1788536;80;21009;-50
2021/01/28 03:38:24;;;;;;;21.17;16.45;;;;;;;-0.11;81.41;98980.11;1797875;79;21037;-49
2021/01/28 03:40:53;;;;;;;18.62;14.75;;;;;;;-0.12;81.35;98977.11;1788281;80;21021;-50
2021/01/28 03:43:21;;;;;;;18.25;13.50;;;;;;;-0.16;81.44;98971.09;1797859;79;21209;-49
2021/01/28 03:45:50;;;;;;;17.95;12.90;;;;;;;-0.18;81.47;98974.84;1788621;80;21041;-49
2021/01/28 03:48:18;;;;;;;20.30;13.88;;;;;;;-0.18;81.66;98971.33;1797752;79;21006;-49
2021/01/28 03:50:57;;;;;;;21.23;14.85;;;;;;;-0.19;81.67;98966.98;1784083;80;21027;-50
2021/01/28 03:53:30;;;;;;;19.32;15.20;;;;;;;-0.19;81.85;98966.98;1785464;80;20998;-50
2021/01/28 03:56:05;;;;;;;20.40;16.02;;;;;;;-0.16;81.83;98972.44;1780255;80;21212;-50
2021/01/28 03:58:35;;;;;;;20.30;14.47;;;;;;;-0.15;81.85;98974.90;1786138;80;21022;-50
2021/01/28 04:01:21;;;;;;;23.17;16.27;;;;;;;-0.13;81.91;98972.77;1783023;80;20985;-49
2021/01/28 04:03:50;;;;;;;20.97;15.68;;;;;;;-0.15;81.87;98969.50;1786341;80;21088;-50
2021/01/28 04:06:28;;;;;;;20.40;15.83;;;;;;;-0.13;81.85;98968.72;1706270;83;21544;-50
2021/01/28 04:09:00;;;;;;;21.48;16.00;;;;;;;-0.14;81.89;98973.84;1792538;78;21223;-50
2021/01/28 04:11:46;;;;;;;20.97;15.63;;;;;;;-0.14;82.00;98967.61;1776480;78;21947;-50
2021/01/28 04:14:16;;;;;;;23.60;17.37;;;;;;;-0.14;82.09;98958.16;1750697;80;21620;-50
2021/01/28 04:16:44;;;;;;;24.10;18.05;;;;;;;-0.12;82.10;98962.81;1786231;80;21041;-50
2021/01/28 04:19:12;;;;;;;23.20;17.12;;;;;;;-0.10;82.21;98966.92;1782820;80;21093;-50
2021/01/28 04:21:42;;;;;;;26.00;16.75;;;;;;;-0.05;82.17;98972.94;1785930;80;23634;-50
2021/01/28 04:24:10;;;;;;;22.77;16.60;;;;;;;-0.04;82.00;98969.19;1782666;80;21022;-50
2021/01/28 04:26:46;;;;;;;23.95;15.98;;;;;;;-0.03;81.98;98975.70;1785520;80;21172;-50
2021/01/28 04:29:14;;;;;;;23.75;17.25;;;;;;;-0.01;81.98;98982.20;1782534;80;21038;-50
2021/01/28 04:31:42;;;;;;;22.58;15.03;;;;;;;0.03;82.08;98969.03;1786263;80;21065;-50
2021/01/28 04:34:22;;;;;;;26.48;16.87;;;;;;;0.06;82.01;98970.73;1756695;80;21060;-51
2021/01/28 04:36:50;;;;;;;27.17;18.07;;;;;;;0.11;81.94;98975.41;1786247;80;21014;-50
2021/01/28 04:39:19;;;;;;;25.32;18.75;;;;;;;0.12;81.86;98973.81;1778089;80;21172;-50
2021/01/28 04:41:52;;;;;;;29.30;18.80;;;;;;;0.15;81.69;98965.77;1785926;80;21066;-50
2021/01/28 04:44:21;;;;;;;31.65;20.90;;;;;;;0.14;81.67;98970.88;1752079;80;21034;-50
2021/01/28 04:47:05;;;;;;;31.55;20.60;;;;;;;0.11;81.70;98968.66;1784604;80;21471;-51
2021/01/28 04:49:56;;;;;;;26.25;20.00;;;;;;;0.15;81.78;98957.13;1754492;80;21616;-51
2021/01/28 04:52:38;;;;;;;24.15;17.62;;;;;;;0.16;81.79;98951.22;1770650;80;21066;-51
2021/01/28 04:55:36;;;;;;;25.52;18.23;;;;;;;0.19;81.83;98955.29;1759739;81;20985;-51
2021/01/28 04:58:03;;;;;;;23.87;17.12;;;;;;;0.19;81.66;98946.68;1770731;81;21642;-51
2021/01/28 05:00:36;;;;;;;24.70;18.70;;;;;;;0.15;81.62;98958.48;1757581;81;21021;-50
2021/01/28 05:03:22;;;;;;;36.53;22.90;;;;;;;0.13;81.62;98953.05;1769556;81;21035;-50
2021/01/28 05:06:10;;;;;;;38.28;26.40;;;;;;;0.10;81.59;98955.70;1758671;81;21028;-50
2021/01/28 05:08:44;;;;;;;;;;;;;;;0.10;81.74;98957.05;1772912;81;21034;-49
2021/01/28 05:11:34;;;;;;;40.60;28.15;;;;;;;0.14;81.89;98934.42;1770266;81;20124;-50
2021/01/28 05:14:19;;;;;;;43.73;29.85;;;;;;;0.16;81.84;98929.08;1759190;81;21096;-50
2021/01/28 05:17:09;;;;;;;40.83;24.30;;;;;;;0.18;81.85;98909.92;1771333;81;21023;-50
2021/01/28 05:19:57;;;;;;;39.42;29.12;;;;;;;0.22;81.74;98909.73;1830834;76;27787;-51
2021/01/28 05:22:44;;;;;;;30.15;21.23;;;;;;;0.21;81.67;98909.44;1767688;79;21833;-50
2021/01/28 05:25:32;;;;;;;31.45;20.48;;;;;;;0.17;81.77;98909.63;1816882;78;21383;-51
2021/01/28 05:28:32;;;;;;;35.23;19.25;;;;;;;0.12;81.87;98919.01;1816814;78;21410;-50
2021/01/28 05:31:28;;;;;;;30.23;19.65;;;;;;;0.10;81.83;98923.81;1816085;78;21018;-50
2021/01/28 05:34:09;;;;;;;28.00;19.25;;;;;;;0.09;81.88;98923.00;1814914;78;21881;-50
2021/01/28 05:37:03;;;;;;;32.28;19.48;;;;;;;0.12;81.84;98921.70;1815959;79;20994;-50
2021/01/28 05:39:39;;;;;;;31.07;21.52;;;;;;;0.12;81.68;98914.95;1781568;79;22561;-50
2021/01/28 05:42:28;;;;;;;34.67;20.23;;;;;;;0.11;81.67;98920.87;1815539;78;21033;-50
2021/01/28 05:45:01;;;;;;;33.13;20.70;;;;;;;0.18;81.66;98924.78;1815846;78;21022;-50
2021/01/28 05:47:47;;;;;;;28.92;19.60;;;;;;;0.24;81.58;98922.45;1775262;79;27072;-49
2021/01/28 05:50:26;;;;;;;33.13;20.12;;;;;;;0.17;81.62;98917.73;1719669;82;22269;-50
2021/01/28 05:53:17;;;;;;;34.15;20.90;;;;;;;0.19;81.73;98916.14;1747467;82;21290;-50
2021/01/28 05:55:53;;;;;;;34.63;20.43;;;;;;;0.18;81.78;98905.88;1746872;82;21684;-50
2021/01/28 05:58:48;;;;;;;32.35;22.25;;;;;;;0.14;81.83;98908.77;1747727;82;21034;-50
2021/01/28 06:01:38;;;;;;;33.98;23.20;;;;;;;0.16;82.04;98912.06;1747907;82;21034;-51
2021/01/28 06:04:21;;;;;;;36.17;21.95;;;;;;;0.22;82.15;98921.08;1743579;82;21180;-50
2021/01/28 06:07:37;;;;;;;36.23;22.42;;;;;;;0.28;82.15;98926.31;1888360;76;26686;-49
2021/01/28 06:10:24;;;;;;;33.05;21.82;;;;;;;0.22;82.25;98921.89;1856019;77;21029;-51
2021/01/28 06:13:25;;;;;;;33.28;22.50;;;;;;;0.22;82.30;98910.28;1792109;79;21378;-50
2021/01/28 06:16:16;;;;;;;34.65;23.40;;;;;;;0.28;82.49;98915.51;1845876;76;28793;-50
2021/01/28 06:19:07;;;;;;;31.48;22.62;;;;;;;0.23;82.53;98922.70;1816144;78;20998;-50
2021/01/28 06:21:58;;;;;;;36.55;23.87;;;;;;;0.27;82.58;98927.91;1814693;79;21199;-50
2021/01/28 06:25:32;;;;;;;33.28;22.35;;;;;;;0.30;82.47;98922.02;1815896;79;21588;-51
2021/01/28 06:28:40;;;;;;;33.92;21.97;;;;;;;0.34;82.36;98919.13;1766252;81;21610;-51
2021/01/28 06:31:58;;;;;;;34.30;22.93;;;;;;;0.34;82.22;98921.82;1784289;79;21026;-51
2021/01/28 06:35:28;;;;;;;41.42;25.62;;;;;;;0.36;82.14;98918.87;1815978;78;21013;-51
2021/01/28 06:38:32;;;;;;;36.50;25.62;;;;;;;0.38;82.18;98921.63;1815928;79;21207;-50
2021/01/28 06:41:26;;;;;;;36.00;21.55;;;;;;;0.43;81.93;98917.67;1887909;75;29792;-52
2021/01/28 06:44:10;;;;;;;34.38;22.17;;;;;;;0.37;81.83;98914.58;1858380;77;20927;-51
2021/01/28 06:47:01;;;;;;;43.95;26.75;;;;;;;0.35;81.91;98911.31;1855153;77;21459;-51
2021/01/28 06:49:57;;;;;;;40.60;26.82;;;;;;;0.33;81.93;98900.75;1858514;77;21012;-52
2021/01/28 06:52:50;;;;;;;;;;;;;;;0.38;82.08;98907.31;1828626;77;20992;-52
2021/01/28 06:55:34;;;;;;;49.80;27.07;;;;;;;0.40;82.06;98906.52;1857122;77;20181;-51
2021/01/28 06:58:23;;;;;;;44.55;29.87;;;;;;;0.39;81.91;98898.16;1841088;77;21024;-51
2021/01/28 07:01:01;;;;;;;38.78;26.07;;;;;;;0.39;81.87;98895.45;1858559;77;21157;-51
2021/01/28 07:04:03;;;;;;;39.90;25.82;;;;;;;0.40;81.93;98884.41;1858760;77;21017;-52
2021/01/28 07:07:16;;;;;;;37.03;22.85;;;;;;;0.40;81.82;98884.92;1856199;77;21049;-51
2021/01/28 07:10:23;;;;;;;42.88;28.55;;;;;;;0.34;81.95;98896.16;1825269;77;21719;-51
2021/01/28 07:13:20;;;;;;;36.28;25.25;;;;;;;0.35;82.19;98892.41;1799001;78;21568;-51
2021/01/28 07:16:04;;;;;;;37.40;26.07;;;;;;;0.37;82.32;98889.46;1825043;78;21378;-52
2021/01/28 07:18:42;;;;;;;56.83;35.78;;;;;;;0.33;82.38;98888.60;1824401;78;21440;-52
2021/01/28 07:21:37;;;;;;;42.80;29.07;;;;;;;0.37;82.67;98878.66;1825154;78;21592;-51
2021/01/28 07:24:34;;;;;;;33.78;23.85;;;;;;;0.43;82.69;98866.35;1824660;78;21013;-51
2021/01/28 07:27:08;;;;;;;32.55;23.00;;;;;;;0.47;82.54;98859.91;1825216;78;21418;-52
2021/01/28 07:29:50;;;;;;;31.00;23.92;;;;;;;0.45;82.48;98853.41;1825047;78;21371;-51
2021/01/28 07:32:37;;;;;;;32.95;23.10;;;;;;;0.46;82.42;98852.35;1824982;78;21020;-52
2021/01/28 07:35:42;;;;;;;47.27;26.48;;;;;;;0.48;82.49;98846.70;1823686;78;21115;-51
2021/01/28 07:38:37;;;;;;;50.60;27.95;;;;;;;0.51;82.44;98854.30;1824695;78;20997;-51
2021/01/28 07:41:31;;;;;;;35.33;22.70;;;;;;;0.51;82.31;98865.11;1823098;78;21037;-52
2021/01/28 07:44:28;;;;;;;36.70;24.20;;;;;;;0.55;82.22;98871.66;1748317;78;21315;-52
2021/01/28 07:47:04;;;;;;;36.48;23.55;;;;;;;0.53;82.19;98873.81;1819443;78;21068;-51
2021/01/28 07:49:35;;;;;;;31.33;20.52;;;;;;;0.49;82.08;98875.36;1822780;78;21101;-51
2021/01/28 07:52:21;;;;;;;28.85;20.45;;;;;;;0.47;82.26;98868.02;1820854;78;20993;-52
2021/01/28 07:54:51;;;;;;;29.65;21.87;;;;;;;0.51;82.31;98867.81;1815332;78;21021;-51
2021/01/28 07:57:41;;;;;;;35.23;21.33;;;;;;;0.55;82.35;98869.51;1819491;78;21202;-51
2021/01/28 08:00:15;;;;;;;29.10;19.32;;;;;;;0.58;82.32;98861.72;1821248;78;21001;-51
2021/01/28 08:02:46;;;;;;;25.92;18.60;;;;;;;0.57;82.33;98869.52;1826433;77;21136;-51
2021/01/28 08:05:22;;;;;;;26.97;19.45;;;;;;;0.58;82.37;98869.81;1812188;77;21061;-52
2021/01/28 08:08:10;;;;;;;26.20;18.40;;;;;;;0.61;82.30;98875.27;1820480;77;21044;-51
2021/01/28 08:10:44;;;;;;;30.40;18.98;;;;;;;0.61;82.34;98874.72;1788456;79;22080;-51
2021/01/28 08:13:29;;;;;;;43.52;18.02;;;;;;;0.63;82.36;98884.77;1771383;79;21069;-52
2021/01/28 08:18:42;;;;;;;26.77;18.20;;;;;;;0.73;82.34;98898.14;1805651;78;22828;-50
2021/01/28 08:21:22;;;;;;;24.65;17.35;;;;;;;0.66;82.40;98899.14;1793581;79;21091;-50
2021/01/28 08:23:54;;;;;;;27.55;18.67;;;;;;;0.63;82.62;98899.64;1814251;79;22690;-51
2021/01/28 08:26:32;;;;;;;27.40;19.25;;;;;;;0.64;82.87;98901.28;1795036;78;21058;-52
2021/01/28 08:29:23;;;;;;;30.23;20.82;;;;;;;0.67;83.06;98899.44;1787796;78;21034;-51
2021/01/28 08:31:53;;;;;;;32.25;24.43;;;;;;;0.73;83.16;98880.06;1793646;78;20983;-51
2021/01/28 08:34:29;;;;;;;33.65;20.77;;;;;;;0.78;83.22;98872.56;1783208;78;21473;-52
2021/01/28 08:37:05;;;;;;;29.37;18.37;;;;;;;0.82;83.21;98865.60;1792821;78;21199;-52
2021/01/28 08:39:34;;;;;;;;;;;;;;;0.85;83.16;98863.20;1781977;78;21039;-52
2021/01/28 08:42:16;;;;;;;30.52;20.30;;;;;;;0.86;83.16;98861.34;1782741;78;20162;-53
2021/01/28 08:44:52;;;;;;;36.80;23.12;;;;;;;0.90;83.26;98871.94;1790851;78;20940;-52
2021/01/28 08:47:35;;;;;;;34.00;23.18;;;;;;;1.00;83.18;98883.41;1777569;79;23165;-52
2021/01/28 08:50:18;;;;;;;27.93;19.52;;;;;;;0.96;83.27;98876.89;1713156;82;21074;-54
2021/01/28 08:52:46;;;;;;;33.10;21.85;;;;;;;0.98;83.17;98857.98;1745995;80;21394;-53
2021/01/28 08:55:24;;;;;;;30.40;20.23;;;;;;;0.99;83.08;98859.63;1746034;80;21074;-53
2021/01/28 08:57:54;;;;;;;36.00;25.32;;;;;;;1.06;82.99;98874.84;1748310;80;20998;-54
2021/01/28 09:00:22;;;;;;;30.80;20.35;;;;;;;1.06;82.86;98866.22;1720442;80;21097;-54
2021/01/28 09:02:52;;;;;;;33.95;22.67;;;;;;;1.09;82.85;98871.13;1746665;80;21058;-53
2021/01/28 09:05:27;;;;;;;29.75;22.65;;;;;;;1.11;82.75;98860.05;1742407;80;21205;-53
2021/01/28 09:08:10;;;;;;;25.15;17.80;;;;;;;1.12;82.52;98854.39;1677756;83;21062;-53
2021/01/28 09:10:46;;;;;;;26.40;17.52;;;;;;;1.11;82.21;98854.65;1741739;80;21168;-53
2021/01/28 09:13:29;;;;;;;22.87;17.07;;;;;;;1.05;82.26;98857.81;1739434;81;21010;-53
2021/01/28 09:16:21;;;;;;;73.60;38.28;;;;;;;1.04;82.32;98834.54;1743199;80;21583;-52
2021/01/28 09:18:50;;;;;;;40.20;24.70;;;;;;;0.99;82.43;98820.42;1738250;80;21389;-52
2021/01/28 09:21:25;;;;;;;33.38;22.40;;;;;;;1.04;82.50;98829.13;1745138;81;21577;-52
2021/01/28 09:24:03;;;;;;;30.12;20.08;;;;;;;1.05;82.50;98840.78;1736185;80;21019;-52
2021/01/28 09:26:36;;;;;;;22.13;16.42;;;;;;;1.08;82.62;98838.92;1737343;80;20983;-51
2021/01/28 09:29:21;;;;;;;33.58;20.15;;;;;;;1.10;82.72;98822.74;1742337;81;20939;-52
2021/01/28 09:31:53;;;;;;;27.27;19.02;;;;;;;1.13;82.58;98814.13;1737980;80;22076;-52
2021/01/28 09:34:26;;;;;;;29.15;19.42;;;;;;;1.16;82.29;98833.09;1730378;81;21015;-51
2021/01/28 09:37:25;;;;;;;51.60;28.62;;;;;;;1.15;82.08;98849.03;1744126;80;21009;-52
2021/01/28 09:39:53;;;;;;;31.12;19.40;;;;;;;1.17;81.86;98843.66;1744771;80;20976;-53
2021/01/28 09:42:38;;;;;;;30.57;21.23;;;;;;;1.20;81.77;98823.38;1742024;80;20982;-53
2021/01/28 09:45:10;;;;;;;20.20;13.32;;;;;;;1.20;81.57;98813.41;1735380;80;21135;-53
2021/01/28 09:47:56;;;;;;;23.42;15.00;;;;;;;1.19;81.26;98810.95;1749370;81;21688;-53
2021/01/28 09:50:25;;;;;;;23.45;16.82;;;;;;;1.15;81.23;98805.76;1744250;80;20946;-53
2021/01/28 09:52:58;;;;;;;24.57;16.20;;;;;;;1.10;81.45;98821.39;1742155;81;21645;-52
2021/01/28 09:58:10;;;;;;;36.85;20.45;;;;;;;1.10;81.76;98816.50;1704168;82;21162;-53
2021/01/28 10:00:38;;;;;;;32.75;22.00;;;;;;;1.12;81.79;98821.95;1716489;82;21051;-52
2021/01/28 10:03:09;;;;;;;40.98;29.27;;;;;;;1.17;81.70;98807.15;1746500;80;20954;-52
2021/01/28 10:05:45;;;;;;;97.60;59.38;;;;;;;1.17;81.61;98792.79;1741001;81;21054;-51
2021/01/28 10:08:16;;;;;;;98.42;64.45;;;;;;;1.19;81.66;98790.67;1736405;81;20967;-52
2021/01/28 10:10:47;;;;;;;159.65;104.53;;;;;;;1.19;81.74;98771.19;1740399;80;21375;-53
2021/01/28 10:13:21;;;;;;;46.25;28.90;;;;;;;1.18;81.93;98780.91;1736049;80;21013;-51
2021/01/28 10:15:51;;;;;;;25.43;16.17;;;;;;;1.22;81.96;98783.40;1741471;81;21623;-53
2021/01/28 10:18:20;;;;;;;35.30;19.52;;;;;;;1.27;81.62;98794.80;1688047;82;22079;-53
2021/01/28 10:20:52;;;;;;;22.62;14.85;;;;;;;1.25;81.50;98804.53;1692686;83;21079;-53
2021/01/28 10:23:22;;;;;;;35.20;20.88;;;;;;;1.29;81.49;98794.03;1668678;84;21395;-53
2021/01/28 10:25:55;;;;;;;85.07;75.78;;;;;;;1.31;81.55;98806.76;1737711;80;21069;-53
2021/01/28 10:28:29;;;;;;;29.50;20.57;;;;;;;1.35;81.49;98799.23;1740336;81;21011;-53
2021/01/28 10:31:07;;;;;;;20.55;13.95;;;;;;;1.35;81.14;98799.23;1731130;81;20997;-51
2021/01/28 10:33:36;;;;;;;25.45;18.98;;;;;;;1.34;81.15;98797.62;1737155;80;20986;-52
2021/01/28 10:36:06;;;;;;;36.40;27.20;;;;;;;1.39;81.12;98783.33;1743698;81;22312;-51
2021/01/28 10:38:35;;;;;;;36.35;26.20;;;;;;;1.41;80.82;98789.83;1741417;80;21024;-51
2021/01/28 10:41:03;;;;;;;36.63;24.57;;;;;;;1.42;80.71;98790.94;1732806;80;20984;-51
2021/01/28 10:43:31;;;;;;;38.95;26.25;;;;;;;1.46;80.63;98791.23;1741136;80;21726;-51
2021/01/28 10:45:58;;;;;;;42.40;29.77;;;;;;;1.48;80.30;98783.69;1738491;81;21044;-53
2021/01/28 10:48:31;;;;;;;42.70;28.62;;;;;;;1.50;80.12;98781.53;1741160;81;21415;-51
2021/01/28 10:51:05;;;;;;;34.95;24.50;;;;;;;1.53;80.03;98785.92;1735189;81;20998;-52
2021/01/28 10:53:36;;;;;;;43.30;30.82;;;;;;;1.54;79.90;98793.48;1742413;81;20988;-54
2021/01/28 10:56:10;;;;;;;26.80;19.37;;;;;;;1.51;79.88;98792.10;1731423;81;20991;-55
2021/01/28 10:58:38;;;;;;;42.53;28.05;;;;;;;1.48;79.89;98801.28;1730135;80;20955;-53
2021/01/28 11:01:08;;;;;;;76.82;50.23;;;;;;;1.45;79.83;98812.61;1736212;81;21213;-52
2021/01/28 11:03:38;;;;;;;36.58;24.10;;;;;;;1.42;79.83;98811.22;1734466;81;21086;-53
2021/01/28 11:08:51;;;;;;;42.50;26.73;;;;;;;1.44;80.08;98815.03;1806202;78;29115;-52
2021/01/28 11:14:04;;;;;;;26.83;19.47;;;;;;;1.44;80.38;98810.42;1762002;79;22252;-51
2021/01/28 11:16:35;;;;;;;39.35;29.12;;;;;;;1.38;80.32;98801.43;1735896;80;21612;-52
2021/01/28 11:19:05;;;;;;;39.20;26.87;;;;;;;1.41;80.37;98787.13;1738748;80;21679;-51
2021/01/28 11:21:38;;;;;;;40.15;29.85;;;;;;;1.40;80.52;98788.19;1729623;80;22071;-52
2021/01/28 11:24:07;;;;;;;40.12;26.35;;;;;;;1.40;80.64;98774.67;1673586;85;21088;-53
2021/01/28 11:26:43;;;;;;;38.28;24.70;;;;;;;1.42;80.73;98763.07;1685939;84;21086;-53
2021/01/28 11:29:17;;;;;;;29.48;20.95;;;;;;;1.47;80.51;98754.99;1671195;85;21075;-52
2021/01/28 11:31:44;;;;;;;31.97;26.25;;;;;;;1.51;80.28;98767.75;1698582;84;21155;-53
2021/01/28 11:34:16;;;;;;;28.40;22.95;;;;;;;1.54;80.10;98756.96;1700472;82;20970;-53
2021/01/28 11:36:46;;;;;;;30.17;24.47;;;;;;;1.54;79.89;98756.45;1679451;84;21022;-53
2021/01/28 11:39:18;;;;;;;26.55;20.00;;;;;;;1.53;79.87;98756.70;1698767;82;21218;-52
2021/01/28 11:41:48;;;;;;;30.17;20.37;;;;;;;1.52;79.86;98752.35;1736891;82;21091;-51
2021/01/28 11:44:16;;;;;;;26.33;19.85;;;;;;;1.54;80.00;98751.03;1679234;85;21412;-53
2021/01/28 11:46:47;;;;;;;35.30;21.27;;;;;;;1.57;79.77;98744.81;1695968;81;21098;-53
2021/01/28 11:49:24;;;;;;;23.52;15.93;;;;;;;1.55;79.82;98738.31;1693455;82;22100;-53
2021/01/28 11:51:55;;;;;;;35.40;21.95;;;;;;;1.56;79.71;98730.48;1689482;82;21206;-53
2021/01/28 11:54:29;;;;;;;27.58;20.20;;;;;;;1.58;79.74;98730.22;1678696;83;21830;-51
2021/01/28 11:56:59;;;;;;;26.93;20.10;;;;;;;1.59;79.48;98722.36;1699098;82;21588;-51
2021/01/28 11:59:31;;;;;;;38.67;24.85;;;;;;;1.60;79.45;98715.37;1675885;85;21039;-52
2021/01/28 12:02:04;;;;;;;38.53;24.10;;;;;;;1.61;79.33;98718.33;1696579;82;21022;-53
2021/01/28 12:04:34;;;;;;;43.05;30.00;;;;;;;1.63;79.25;98716.72;1688717;84;21064;-52
2021/01/28 12:07:06;;;;;;;36.90;24.27;;;;;;;1.65;79.11;98710.53;1699697;82;21087;-53
2021/01/28 12:09:42;;;;;;;28.40;18.77;;;;;;;1.66;79.06;98711.63;1664862;84;21412;-52
2021/01/28 12:12:15;;;;;;;32.03;25.23;;;;;;;1.65;79.18;98711.34;1687722;83;21228;-53
2021/01/28 12:14:42;;;;;;;27.75;19.98;;;;;;;1.65;79.19;98708.62;1676918;84;22159;-53
2021/01/28 12:17:10;;;;;;;26.55;18.40;;;;;;;1.63;79.23;98705.37;1667752;84;21179;-51
2021/01/28 12:19:38;;;;;;;70.87;42.73;;;;;;;1.63;79.38;98699.13;1670876;84;21082;-53